sensor_id;sensor_type;location;lat;lon;timestamp;temperature;humidity
24226;DHT22;51462;51.422;5.514;2022-08-05T00:00:03;23.20;99.90
24226;DHT22;51462;51.422;5.514;2022-08-05T00:02:29;23.20;99.90
24226;DHT22;51462;51.422;5.514;2022-08-05T00:04:55;22.90;99.90
24226;DHT22;51462;51.422;5.514;2022-08-05T00:07:20;22.70;99.90
24226;DHT22;51462;51.422;5.514;2022-08-05T00:09:46;23.00;99.90
24226;DHT22;51462;51.422;5.514;2022-08-05T00:12:11;23.00;99.90
24226;DHT22;51462;51.422;5.514;2022-08-05T00:14:37;23.10;99.90
24226;DHT22;51462;51.422;5.514;2022-08-05T00:17:03;22.80;99.90
24226;DHT22;51462;51.422;5.514;2022-08-05T00:19:28;22.80;99.90
24226;DHT22;51462;51.422;5.514;2022-08-05T00:21:54;22.80;99.90
24226;DHT22;51462;51.422;5.514;2022-08-05T00:24:20;22.50;99.90
24226;DHT22;51462;51.422;5.514;2022-08-05T00:26:45;22.60;99.90
24226;DHT22;51462;51.422;5.514;2022-08-05T00:29:11;22.40;99.90
24226;DHT22;51462;51.422;5.514;2022-08-05T00:31:36;22.60;99.90
24226;DHT22;51462;51.422;5.514;2022-08-05T00:34:02;22.70;99.90
24226;DHT22;51462;51.422;5.514;2022-08-05T00:36:29;22.70;99.90
24226;DHT22;51462;51.422;5.514;2022-08-05T00:38:54;22.70;99.90
24226;DHT22;51462;51.422;5.514;2022-08-05T00:41:31;22.20;99.90
24226;DHT22;51462;51.422;5.514;2022-08-05T00:43:57;22.10;99.90
24226;DHT22;51462;51.422;5.514;2022-08-05T00:46:23;21.80;99.90
24226;DHT22;51462;51.422;5.514;2022-08-05T00:48:49;22.10;99.90
24226;DHT22;51462;51.422;5.514;2022-08-05T00:51:15;22.40;99.90
24226;DHT22;51462;51.422;5.514;2022-08-05T00:53:40;22.50;99.90
24226;DHT22;51462;51.422;5.514;2022-08-05T00:56:06;22.40;99.90
24226;DHT22;51462;51.422;5.514;2022-08-05T00:58:32;22.00;99.90
24226;DHT22;51462;51.422;5.514;2022-08-05T01:00:57;22.10;99.90
24226;DHT22;51462;51.422;5.514;2022-08-05T01:03:23;22.00;99.90
24226;DHT22;51462;51.422;5.514;2022-08-05T01:05:50;21.70;99.90
24226;DHT22;51462;51.422;5.514;2022-08-05T01:08:16;21.70;99.90
24226;DHT22;51462;51.422;5.514;2022-08-05T01:10:53;21.70;99.90
24226;DHT22;51462;51.422;5.514;2022-08-05T01:13:44;22.00;99.90
24226;DHT22;51462;51.422;5.514;2022-08-05T01:16:20;21.50;99.90
24226;DHT22;51462;51.422;5.514;2022-08-05T01:18:51;21.30;99.90
24226;DHT22;51462;51.422;5.514;2022-08-05T01:24:34;21.20;99.90
24226;DHT22;51462;51.422;5.514;2022-08-05T01:30:00;20.80;99.90
24226;DHT22;51462;51.422;5.514;2022-08-05T01:32:29;20.90;99.90
24226;DHT22;51462;51.422;5.514;2022-08-05T01:35:02;20.50;99.90
24226;DHT22;51462;51.422;5.514;2022-08-05T01:37:41;21.10;99.90
24226;DHT22;51462;51.422;5.514;2022-08-05T01:40:09;21.40;99.90
24226;DHT22;51462;51.422;5.514;2022-08-05T01:42:35;21.70;99.90
24226;DHT22;51462;51.422;5.514;2022-08-05T01:45:03;21.70;99.90
24226;DHT22;51462;51.422;5.514;2022-08-05T01:47:33;21.40;99.90
24226;DHT22;51462;51.422;5.514;2022-08-05T01:49:59;21.40;99.90
24226;DHT22;51462;51.422;5.514;2022-08-05T01:52:26;21.60;99.90
24226;DHT22;51462;51.422;5.514;2022-08-05T01:54:57;21.60;99.90
24226;DHT22;51462;51.422;5.514;2022-08-05T01:57:26;21.40;99.90
24226;DHT22;51462;51.422;5.514;2022-08-05T01:59:53;21.70;99.90
24226;DHT22;51462;51.422;5.514;2022-08-05T02:02:22;22.10;99.90
24226;DHT22;51462;51.422;5.514;2022-08-05T02:04:49;22.30;99.90
24226;DHT22;51462;51.422;5.514;2022-08-05T02:07:16;21.60;99.90
24226;DHT22;51462;51.422;5.514;2022-08-05T02:09:41;21.50;99.90
24226;DHT22;51462;51.422;5.514;2022-08-05T02:12:15;21.50;99.90
24226;DHT22;51462;51.422;5.514;2022-08-05T02:14:48;21.90;99.90
24226;DHT22;51462;51.422;5.514;2022-08-05T02:17:30;22.00;99.90
24226;DHT22;51462;51.422;5.514;2022-08-05T02:20:06;22.10;99.90
24226;DHT22;51462;51.422;5.514;2022-08-05T02:22:39;21.70;99.90
24226;DHT22;51462;51.422;5.514;2022-08-05T02:25:15;21.50;99.90
24226;DHT22;51462;51.422;5.514;2022-08-05T02:27:42;21.50;99.90
24226;DHT22;51462;51.422;5.514;2022-08-05T02:30:14;21.40;99.90
24226;DHT22;51462;51.422;5.514;2022-08-05T02:32:41;21.50;99.90
24226;DHT22;51462;51.422;5.514;2022-08-05T02:35:11;21.20;99.90
24226;DHT22;51462;51.422;5.514;2022-08-05T02:37:39;20.70;99.90
24226;DHT22;51462;51.422;5.514;2022-08-05T02:40:06;20.90;99.90
24226;DHT22;51462;51.422;5.514;2022-08-05T02:42:32;21.20;99.90
24226;DHT22;51462;51.422;5.514;2022-08-05T02:45:00;21.60;99.90
24226;DHT22;51462;51.422;5.514;2022-08-05T02:47:27;21.40;99.90
24226;DHT22;51462;51.422;5.514;2022-08-05T02:49:54;21.30;99.90
24226;DHT22;51462;51.422;5.514;2022-08-05T02:52:20;21.10;99.90
24226;DHT22;51462;51.422;5.514;2022-08-05T02:54:47;21.30;99.90
24226;DHT22;51462;51.422;5.514;2022-08-05T02:57:14;21.20;99.90
24226;DHT22;51462;51.422;5.514;2022-08-05T02:59:41;21.30;99.90
24226;DHT22;51462;51.422;5.514;2022-08-05T03:02:09;21.20;99.90
24226;DHT22;51462;51.422;5.514;2022-08-05T03:04:36;21.40;99.90
24226;DHT22;51462;51.422;5.514;2022-08-05T03:07:02;21.50;99.90
24226;DHT22;51462;51.422;5.514;2022-08-05T03:09:29;21.20;99.90
24226;DHT22;51462;51.422;5.514;2022-08-05T03:11:54;21.40;99.90
24226;DHT22;51462;51.422;5.514;2022-08-05T03:14:20;21.20;99.90
24226;DHT22;51462;51.422;5.514;2022-08-05T03:16:45;20.90;99.90
24226;DHT22;51462;51.422;5.514;2022-08-05T03:19:11;21.00;99.90
24226;DHT22;51462;51.422;5.514;2022-08-05T03:21:37;21.30;99.90
24226;DHT22;51462;51.422;5.514;2022-08-05T03:24:02;21.30;99.90
24226;DHT22;51462;51.422;5.514;2022-08-05T03:26:29;21.30;99.90
24226;DHT22;51462;51.422;5.514;2022-08-05T03:28:54;20.90;99.90
24226;DHT22;51462;51.422;5.514;2022-08-05T03:31:20;20.40;99.90
24226;DHT22;51462;51.422;5.514;2022-08-05T03:33:46;20.40;99.90
24226;DHT22;51462;51.422;5.514;2022-08-05T03:36:12;20.80;99.90
24226;DHT22;51462;51.422;5.514;2022-08-05T03:38:41;21.20;99.90
24226;DHT22;51462;51.422;5.514;2022-08-05T03:41:07;20.80;99.90
24226;DHT22;51462;51.422;5.514;2022-08-05T03:43:33;20.60;99.90
24226;DHT22;51462;51.422;5.514;2022-08-05T03:45:59;21.20;99.90
24226;DHT22;51462;51.422;5.514;2022-08-05T03:48:26;21.20;99.90
24226;DHT22;51462;51.422;5.514;2022-08-05T03:53:59;20.30;99.90
24226;DHT22;51462;51.422;5.514;2022-08-05T03:56:39;20.40;99.90
24226;DHT22;51462;51.422;5.514;2022-08-05T03:59:12;20.70;99.90
24226;DHT22;51462;51.422;5.514;2022-08-05T04:01:42;21.00;99.90
24226;DHT22;51462;51.422;5.514;2022-08-05T04:04:12;20.50;99.90
24226;DHT22;51462;51.422;5.514;2022-08-05T04:06:38;20.60;99.90
24226;DHT22;51462;51.422;5.514;2022-08-05T04:09:04;20.60;99.90
24226;DHT22;51462;51.422;5.514;2022-08-05T04:11:31;20.50;99.90
24226;DHT22;51462;51.422;5.514;2022-08-05T04:13:58;20.90;99.90
24226;DHT22;51462;51.422;5.514;2022-08-05T04:16:24;21.20;99.90
24226;DHT22;51462;51.422;5.514;2022-08-05T04:18:50;21.00;99.90
24226;DHT22;51462;51.422;5.514;2022-08-05T04:21:16;20.80;99.90
24226;DHT22;51462;51.422;5.514;2022-08-05T04:23:42;20.90;99.90
24226;DHT22;51462;51.422;5.514;2022-08-05T04:26:08;21.00;99.90
24226;DHT22;51462;51.422;5.514;2022-08-05T04:28:34;20.70;99.90
24226;DHT22;51462;51.422;5.514;2022-08-05T04:30:59;21.00;99.90
24226;DHT22;51462;51.422;5.514;2022-08-05T04:33:25;20.90;99.90
24226;DHT22;51462;51.422;5.514;2022-08-05T04:35:51;20.90;99.90
24226;DHT22;51462;51.422;5.514;2022-08-05T04:38:17;20.80;99.90
24226;DHT22;51462;51.422;5.514;2022-08-05T04:40:42;21.00;99.90
24226;DHT22;51462;51.422;5.514;2022-08-05T04:43:08;21.20;99.90
24226;DHT22;51462;51.422;5.514;2022-08-05T04:45:34;21.20;99.90
24226;DHT22;51462;51.422;5.514;2022-08-05T04:48:05;21.10;99.90
24226;DHT22;51462;51.422;5.514;2022-08-05T04:50:31;21.00;99.90
24226;DHT22;51462;51.422;5.514;2022-08-05T04:52:57;21.10;99.90
24226;DHT22;51462;51.422;5.514;2022-08-05T04:55:22;20.90;99.90
24226;DHT22;51462;51.422;5.514;2022-08-05T04:57:48;21.00;99.90
24226;DHT22;51462;51.422;5.514;2022-08-05T05:00:13;21.10;99.90
24226;DHT22;51462;51.422;5.514;2022-08-05T05:02:39;20.90;99.90
24226;DHT22;51462;51.422;5.514;2022-08-05T05:05:05;20.60;99.90
24226;DHT22;51462;51.422;5.514;2022-08-05T05:07:31;20.70;99.90
24226;DHT22;51462;51.422;5.514;2022-08-05T05:09:56;20.90;99.90
24226;DHT22;51462;51.422;5.514;2022-08-05T05:12:22;21.10;99.90
24226;DHT22;51462;51.422;5.514;2022-08-05T05:14:48;21.10;99.90
24226;DHT22;51462;51.422;5.514;2022-08-05T05:17:14;21.20;99.90
24226;DHT22;51462;51.422;5.514;2022-08-05T05:19:39;21.20;99.90
24226;DHT22;51462;51.422;5.514;2022-08-05T05:22:05;21.20;99.90
24226;DHT22;51462;51.422;5.514;2022-08-05T05:24:31;21.30;99.90
24226;DHT22;51462;51.422;5.514;2022-08-05T05:26:57;21.20;99.90
24226;DHT22;51462;51.422;5.514;2022-08-05T05:29:22;20.80;99.90
24226;DHT22;51462;51.422;5.514;2022-08-05T05:31:48;20.70;99.90
24226;DHT22;51462;51.422;5.514;2022-08-05T05:34:13;20.80;99.90
24226;DHT22;51462;51.422;5.514;2022-08-05T05:36:39;21.10;99.90
24226;DHT22;51462;51.422;5.514;2022-08-05T05:39:04;21.10;99.90
24226;DHT22;51462;51.422;5.514;2022-08-05T05:41:30;21.00;99.90
24226;DHT22;51462;51.422;5.514;2022-08-05T05:43:55;21.10;99.90
24226;DHT22;51462;51.422;5.514;2022-08-05T05:46:21;21.20;99.90
24226;DHT22;51462;51.422;5.514;2022-08-05T05:48:46;21.10;99.90
24226;DHT22;51462;51.422;5.514;2022-08-05T05:51:18;21.20;99.90
24226;DHT22;51462;51.422;5.514;2022-08-05T05:53:43;21.10;99.90
24226;DHT22;51462;51.422;5.514;2022-08-05T05:56:09;20.90;99.90
24226;DHT22;51462;51.422;5.514;2022-08-05T05:58:34;21.10;99.90
24226;DHT22;51462;51.422;5.514;2022-08-05T06:01:00;21.20;99.90
24226;DHT22;51462;51.422;5.514;2022-08-05T06:03:25;21.30;99.90
24226;DHT22;51462;51.422;5.514;2022-08-05T06:05:51;21.20;99.90
24226;DHT22;51462;51.422;5.514;2022-08-05T06:08:16;21.40;99.90
24226;DHT22;51462;51.422;5.514;2022-08-05T06:10:42;21.40;99.90
24226;DHT22;51462;51.422;5.514;2022-08-05T06:13:07;21.30;99.90
24226;DHT22;51462;51.422;5.514;2022-08-05T06:15:33;21.50;99.90
24226;DHT22;51462;51.422;5.514;2022-08-05T06:17:58;21.40;99.90
24226;DHT22;51462;51.422;5.514;2022-08-05T06:20:24;21.10;99.90
24226;DHT22;51462;51.422;5.514;2022-08-05T06:22:49;21.20;99.90
24226;DHT22;51462;51.422;5.514;2022-08-05T06:25:15;21.30;99.90
24226;DHT22;51462;51.422;5.514;2022-08-05T06:27:40;21.40;99.90
24226;DHT22;51462;51.422;5.514;2022-08-05T06:30:06;21.30;99.90
24226;DHT22;51462;51.422;5.514;2022-08-05T06:32:32;21.20;99.90
24226;DHT22;51462;51.422;5.514;2022-08-05T06:34:58;21.30;99.90
24226;DHT22;51462;51.422;5.514;2022-08-05T06:37:26;21.40;99.90
24226;DHT22;51462;51.422;5.514;2022-08-05T06:39:52;21.40;99.90
24226;DHT22;51462;51.422;5.514;2022-08-05T06:42:18;21.40;99.90
24226;DHT22;51462;51.422;5.514;2022-08-05T06:44:43;21.30;99.90
24226;DHT22;51462;51.422;5.514;2022-08-05T06:47:09;21.50;99.90
24226;DHT22;51462;51.422;5.514;2022-08-05T06:49:35;21.60;99.90
24226;DHT22;51462;51.422;5.514;2022-08-05T06:52:00;21.60;99.90
24226;DHT22;51462;51.422;5.514;2022-08-05T06:54:26;21.70;99.90
24226;DHT22;51462;51.422;5.514;2022-08-05T06:56:51;21.60;99.90
24226;DHT22;51462;51.422;5.514;2022-08-05T06:59:17;21.60;99.90
24226;DHT22;51462;51.422;5.514;2022-08-05T07:01:42;21.10;99.90
24226;DHT22;51462;51.422;5.514;2022-08-05T07:04:08;20.80;99.90
24226;DHT22;51462;51.422;5.514;2022-08-05T07:06:33;20.60;99.90
24226;DHT22;51462;51.422;5.514;2022-08-05T07:08:59;20.80;99.90
24226;DHT22;51462;51.422;5.514;2022-08-05T07:11:25;20.90;99.90
24226;DHT22;51462;51.422;5.514;2022-08-05T07:13:52;20.60;99.90
24226;DHT22;51462;51.422;5.514;2022-08-05T07:16:37;20.80;99.90
24226;DHT22;51462;51.422;5.514;2022-08-05T07:19:19;20.70;99.90
24226;DHT22;51462;51.422;5.514;2022-08-05T07:21:46;20.80;99.90
24226;DHT22;51462;51.422;5.514;2022-08-05T07:24:12;20.80;99.90
24226;DHT22;51462;51.422;5.514;2022-08-05T07:26:38;20.90;99.90
24226;DHT22;51462;51.422;5.514;2022-08-05T07:29:04;21.00;99.90
24226;DHT22;51462;51.422;5.514;2022-08-05T07:31:29;20.80;99.90
24226;DHT22;51462;51.422;5.514;2022-08-05T07:33:55;21.10;99.90
24226;DHT22;51462;51.422;5.514;2022-08-05T07:36:20;21.20;99.90
24226;DHT22;51462;51.422;5.514;2022-08-05T07:38:46;21.30;99.90
24226;DHT22;51462;51.422;5.514;2022-08-05T07:41:15;21.20;99.90
24226;DHT22;51462;51.422;5.514;2022-08-05T07:43:47;21.10;99.90
24226;DHT22;51462;51.422;5.514;2022-08-05T07:46:13;20.90;99.90
24226;DHT22;51462;51.422;5.514;2022-08-05T07:48:39;20.80;99.90
24226;DHT22;51462;51.422;5.514;2022-08-05T07:51:04;20.80;99.90
24226;DHT22;51462;51.422;5.514;2022-08-05T07:53:30;20.70;99.90
24226;DHT22;51462;51.422;5.514;2022-08-05T07:55:56;20.70;99.90
24226;DHT22;51462;51.422;5.514;2022-08-05T07:58:21;20.70;99.90
24226;DHT22;51462;51.422;5.514;2022-08-05T08:00:47;20.90;99.90
24226;DHT22;51462;51.422;5.514;2022-08-05T08:03:14;20.90;99.90
24226;DHT22;51462;51.422;5.514;2022-08-05T08:05:40;20.70;99.90
24226;DHT22;51462;51.422;5.514;2022-08-05T08:08:10;20.80;99.90
24226;DHT22;51462;51.422;5.514;2022-08-05T08:10:35;21.00;99.90
24226;DHT22;51462;51.422;5.514;2022-08-05T08:13:01;20.60;99.90
24226;DHT22;51462;51.422;5.514;2022-08-05T08:15:27;20.60;99.90
24226;DHT22;51462;51.422;5.514;2022-08-05T08:17:52;20.60;99.90
24226;DHT22;51462;51.422;5.514;2022-08-05T08:20:20;20.80;99.90
24226;DHT22;51462;51.422;5.514;2022-08-05T08:22:53;21.00;99.90
24226;DHT22;51462;51.422;5.514;2022-08-05T08:25:19;21.50;99.90
24226;DHT22;51462;51.422;5.514;2022-08-05T08:27:45;21.50;99.90
24226;DHT22;51462;51.422;5.514;2022-08-05T08:30:11;21.70;99.90
24226;DHT22;51462;51.422;5.514;2022-08-05T08:32:37;21.90;99.90
24226;DHT22;51462;51.422;5.514;2022-08-05T08:35:03;21.60;99.90
24226;DHT22;51462;51.422;5.514;2022-08-05T08:37:28;21.80;99.90
24226;DHT22;51462;51.422;5.514;2022-08-05T08:39:54;21.80;99.90
24226;DHT22;51462;51.422;5.514;2022-08-05T08:42:21;21.90;99.90
24226;DHT22;51462;51.422;5.514;2022-08-05T08:44:47;22.00;99.90
24226;DHT22;51462;51.422;5.514;2022-08-05T08:47:13;21.90;99.90
24226;DHT22;51462;51.422;5.514;2022-08-05T08:49:43;21.90;99.90
24226;DHT22;51462;51.422;5.514;2022-08-05T08:52:18;21.90;99.90
24226;DHT22;51462;51.422;5.514;2022-08-05T08:54:45;22.00;99.90
24226;DHT22;51462;51.422;5.514;2022-08-05T08:57:12;22.00;99.90
24226;DHT22;51462;51.422;5.514;2022-08-05T08:59:38;21.90;99.90
24226;DHT22;51462;51.422;5.514;2022-08-05T09:02:05;22.10;99.90
24226;DHT22;51462;51.422;5.514;2022-08-05T09:04:34;22.00;99.90
24226;DHT22;51462;51.422;5.514;2022-08-05T09:07:06;22.00;99.90
24226;DHT22;51462;51.422;5.514;2022-08-05T09:09:33;21.80;99.90
24226;DHT22;51462;51.422;5.514;2022-08-05T09:12:00;22.10;99.90
24226;DHT22;51462;51.422;5.514;2022-08-05T09:14:26;22.30;99.90
24226;DHT22;51462;51.422;5.514;2022-08-05T09:16:52;22.40;99.90
24226;DHT22;51462;51.422;5.514;2022-08-05T09:19:18;22.30;99.90
24226;DHT22;51462;51.422;5.514;2022-08-05T09:21:44;22.20;99.90
24226;DHT22;51462;51.422;5.514;2022-08-05T09:24:09;22.30;99.90
24226;DHT22;51462;51.422;5.514;2022-08-05T09:26:38;22.60;99.90
24226;DHT22;51462;51.422;5.514;2022-08-05T09:29:05;22.70;99.90
24226;DHT22;51462;51.422;5.514;2022-08-05T09:31:32;22.60;99.90
24226;DHT22;51462;51.422;5.514;2022-08-05T09:34:06;22.70;99.90
24226;DHT22;51462;51.422;5.514;2022-08-05T09:39:12;22.90;99.90
24226;DHT22;51462;51.422;5.514;2022-08-05T09:41:58;22.90;99.90
24226;DHT22;51462;51.422;5.514;2022-08-05T09:44:39;22.70;99.90
24226;DHT22;51462;51.422;5.514;2022-08-05T09:47:15;22.40;99.90
24226;DHT22;51462;51.422;5.514;2022-08-05T09:49:45;22.70;99.90
24226;DHT22;51462;51.422;5.514;2022-08-05T09:52:27;22.40;99.90
24226;DHT22;51462;51.422;5.514;2022-08-05T09:54:57;22.30;99.90
24226;DHT22;51462;51.422;5.514;2022-08-05T09:57:43;22.60;99.90
24226;DHT22;51462;51.422;5.514;2022-08-05T10:00:17;23.10;99.90
24226;DHT22;51462;51.422;5.514;2022-08-05T10:02:45;23.20;99.90
24226;DHT22;51462;51.422;5.514;2022-08-05T10:05:18;23.00;99.90
24226;DHT22;51462;51.422;5.514;2022-08-05T10:07:52;22.60;99.90
24226;DHT22;51462;51.422;5.514;2022-08-05T10:10:24;22.50;99.90
24226;DHT22;51462;51.422;5.514;2022-08-05T10:12:55;22.70;99.90
24226;DHT22;51462;51.422;5.514;2022-08-05T10:15:25;22.20;99.90
24226;DHT22;51462;51.422;5.514;2022-08-05T10:18:12;22.10;99.90
24226;DHT22;51462;51.422;5.514;2022-08-05T10:20:45;22.10;99.90
24226;DHT22;51462;51.422;5.514;2022-08-05T10:23:15;22.20;99.90
24226;DHT22;51462;51.422;5.514;2022-08-05T10:25:41;22.50;99.90
24226;DHT22;51462;51.422;5.514;2022-08-05T10:28:07;22.70;99.90
24226;DHT22;51462;51.422;5.514;2022-08-05T10:30:35;23.00;99.90
24226;DHT22;51462;51.422;5.514;2022-08-05T10:33:01;23.10;99.90
24226;DHT22;51462;51.422;5.514;2022-08-05T10:35:27;23.30;99.90
24226;DHT22;51462;51.422;5.514;2022-08-05T10:37:53;23.10;99.90
24226;DHT22;51462;51.422;5.514;2022-08-05T10:40:31;23.20;99.90
24226;DHT22;51462;51.422;5.514;2022-08-05T10:43:06;23.10;99.90
24226;DHT22;51462;51.422;5.514;2022-08-05T10:45:32;23.20;99.90
24226;DHT22;51462;51.422;5.514;2022-08-05T10:54:01;22.90;99.90
24226;DHT22;51462;51.422;5.514;2022-08-05T10:56:29;22.80;99.90
24226;DHT22;51462;51.422;5.514;2022-08-05T11:01:34;22.90;99.90
24226;DHT22;51462;51.422;5.514;2022-08-05T11:06:29;23.30;99.90
24226;DHT22;51462;51.422;5.514;2022-08-05T11:09:20;23.20;99.90
24226;DHT22;51462;51.422;5.514;2022-08-05T11:11:48;23.30;99.90
24226;DHT22;51462;51.422;5.514;2022-08-05T11:14:29;23.30;99.90
24226;DHT22;51462;51.422;5.514;2022-08-05T11:19:45;23.90;99.90
24226;DHT22;51462;51.422;5.514;2022-08-05T11:22:39;24.00;99.90
24226;DHT22;51462;51.422;5.514;2022-08-05T11:25:31;24.00;99.90
24226;DHT22;51462;51.422;5.514;2022-08-05T11:33:29;24.20;99.90
24226;DHT22;51462;51.422;5.514;2022-08-05T11:35:56;24.40;99.90
24226;DHT22;51462;51.422;5.514;2022-08-05T11:43:53;24.50;99.90
24226;DHT22;51462;51.422;5.514;2022-08-05T11:48:52;24.60;99.90
24226;DHT22;51462;51.422;5.514;2022-08-05T11:51:18;24.70;99.90
24226;DHT22;51462;51.422;5.514;2022-08-05T11:53:45;24.80;99.90
24226;DHT22;51462;51.422;5.514;2022-08-05T11:56:11;25.00;99.90
24226;DHT22;51462;51.422;5.514;2022-08-05T11:58:38;25.20;99.90
24226;DHT22;51462;51.422;5.514;2022-08-05T12:01:13;25.10;99.90
24226;DHT22;51462;51.422;5.514;2022-08-05T12:06:09;25.50;99.90
24226;DHT22;51462;51.422;5.514;2022-08-05T12:08:46;25.30;99.90
24226;DHT22;51462;51.422;5.514;2022-08-05T12:11:18;25.20;99.90
24226;DHT22;51462;51.422;5.514;2022-08-05T12:14:01;25.10;99.90
24226;DHT22;51462;51.422;5.514;2022-08-05T12:16:31;24.80;99.90
24226;DHT22;51462;51.422;5.514;2022-08-05T12:18:57;24.80;99.90
24226;DHT22;51462;51.422;5.514;2022-08-05T12:21:26;24.90;99.90
24226;DHT22;51462;51.422;5.514;2022-08-05T12:24:05;25.00;99.90
24226;DHT22;51462;51.422;5.514;2022-08-05T12:26:32;25.30;99.90
24226;DHT22;51462;51.422;5.514;2022-08-05T12:28:58;25.40;99.90
24226;DHT22;51462;51.422;5.514;2022-08-05T12:31:23;25.50;99.90
24226;DHT22;51462;51.422;5.514;2022-08-05T12:33:49;25.60;99.90
24226;DHT22;51462;51.422;5.514;2022-08-05T12:36:15;25.70;99.90
24226;DHT22;51462;51.422;5.514;2022-08-05T12:38:41;25.40;99.90
24226;DHT22;51462;51.422;5.514;2022-08-05T12:41:14;25.40;99.90
24226;DHT22;51462;51.422;5.514;2022-08-05T12:43:55;25.70;99.90
24226;DHT22;51462;51.422;5.514;2022-08-05T12:46:28;25.90;99.90
24226;DHT22;51462;51.422;5.514;2022-08-05T12:49:04;25.80;99.90
24226;DHT22;51462;51.422;5.514;2022-08-05T12:51:30;26.00;99.90
24226;DHT22;51462;51.422;5.514;2022-08-05T12:54:02;25.40;99.90
24226;DHT22;51462;51.422;5.514;2022-08-05T12:56:29;25.40;99.90
24226;DHT22;51462;51.422;5.514;2022-08-05T12:59:14;25.50;99.90
24226;DHT22;51462;51.422;5.514;2022-08-05T13:01:41;25.80;99.90
24226;DHT22;51462;51.422;5.514;2022-08-05T13:04:08;26.00;99.90
24226;DHT22;51462;51.422;5.514;2022-08-05T13:06:41;26.10;99.90
24226;DHT22;51462;51.422;5.514;2022-08-05T13:09:12;26.30;99.90
24226;DHT22;51462;51.422;5.514;2022-08-05T13:11:40;26.40;99.90
24226;DHT22;51462;51.422;5.514;2022-08-05T13:16:54;26.60;99.90
24226;DHT22;51462;51.422;5.514;2022-08-05T13:19:24;26.80;99.90
24226;DHT22;51462;51.422;5.514;2022-08-05T13:21:51;26.90;99.90
24226;DHT22;51462;51.422;5.514;2022-08-05T13:24:17;27.10;99.90
24226;DHT22;51462;51.422;5.514;2022-08-05T13:26:49;26.90;99.90
24226;DHT22;51462;51.422;5.514;2022-08-05T13:29:16;26.60;99.90
24226;DHT22;51462;51.422;5.514;2022-08-05T13:31:45;26.80;99.90
24226;DHT22;51462;51.422;5.514;2022-08-05T13:34:10;27.10;99.70
24226;DHT22;51462;51.422;5.514;2022-08-05T13:36:36;27.60;99.50
24226;DHT22;51462;51.422;5.514;2022-08-05T13:39:04;27.90;99.90
24226;DHT22;51462;51.422;5.514;2022-08-05T13:41:30;27.70;99.40
24226;DHT22;51462;51.422;5.514;2022-08-05T13:43:56;27.30;96.80
24226;DHT22;51462;51.422;5.514;2022-08-05T13:46:22;26.90;99.90
24226;DHT22;51462;51.422;5.514;2022-08-05T13:48:48;27.20;98.00
24226;DHT22;51462;51.422;5.514;2022-08-05T13:51:14;27.60;96.00
24226;DHT22;51462;51.422;5.514;2022-08-05T13:53:41;28.30;96.80
24226;DHT22;51462;51.422;5.514;2022-08-05T13:56:08;28.40;93.10
24226;DHT22;51462;51.422;5.514;2022-08-05T13:58:34;28.70;94.50
24226;DHT22;51462;51.422;5.514;2022-08-05T14:00:59;28.80;96.30
24226;DHT22;51462;51.422;5.514;2022-08-05T14:03:25;29.30;94.70
24226;DHT22;51462;51.422;5.514;2022-08-05T14:05:53;29.50;95.00
24226;DHT22;51462;51.422;5.514;2022-08-05T14:08:18;29.40;92.80
24226;DHT22;51462;51.422;5.514;2022-08-05T14:10:44;29.60;95.90
24226;DHT22;51462;51.422;5.514;2022-08-05T14:13:10;30.30;96.10
24226;DHT22;51462;51.422;5.514;2022-08-05T14:15:35;29.40;90.70
24226;DHT22;51462;51.422;5.514;2022-08-05T14:18:01;28.70;89.70
24226;DHT22;51462;51.422;5.514;2022-08-05T14:20:30;29.60;90.20
24226;DHT22;51462;51.422;5.514;2022-08-05T14:22:57;30.70;88.00
24226;DHT22;51462;51.422;5.514;2022-08-05T14:25:22;30.60;87.30
24226;DHT22;51462;51.422;5.514;2022-08-05T14:27:49;29.60;84.90
24226;DHT22;51462;51.422;5.514;2022-08-05T14:30:15;28.90;90.20
24226;DHT22;51462;51.422;5.514;2022-08-05T14:32:41;28.50;90.20
24226;DHT22;51462;51.422;5.514;2022-08-05T14:35:07;29.20;91.00
24226;DHT22;51462;51.422;5.514;2022-08-05T14:37:33;29.70;91.30
24226;DHT22;51462;51.422;5.514;2022-08-05T14:39:58;29.30;89.20
24226;DHT22;51462;51.422;5.514;2022-08-05T14:42:27;28.90;89.80
24226;DHT22;51462;51.422;5.514;2022-08-05T14:44:52;28.30;88.60
24226;DHT22;51462;51.422;5.514;2022-08-05T14:47:18;28.10;92.50
24226;DHT22;51462;51.422;5.514;2022-08-05T14:49:43;28.80;90.60
24226;DHT22;51462;51.422;5.514;2022-08-05T14:52:09;27.60;94.40
24226;DHT22;51462;51.422;5.514;2022-08-05T14:54:35;27.40;92.30
24226;DHT22;51462;51.422;5.514;2022-08-05T14:57:00;27.90;91.60
24226;DHT22;51462;51.422;5.514;2022-08-05T14:59:26;28.10;92.60
24226;DHT22;51462;51.422;5.514;2022-08-05T15:01:52;28.00;91.50
24226;DHT22;51462;51.422;5.514;2022-08-05T15:04:18;27.90;95.20
24226;DHT22;51462;51.422;5.514;2022-08-05T15:06:44;27.80;90.50
24226;DHT22;51462;51.422;5.514;2022-08-05T15:09:09;27.30;90.70
24226;DHT22;51462;51.422;5.514;2022-08-05T15:11:35;27.90;97.00
24226;DHT22;51462;51.422;5.514;2022-08-05T15:14:01;28.90;94.60
24226;DHT22;51462;51.422;5.514;2022-08-05T15:16:27;28.30;91.60
24226;DHT22;51462;51.422;5.514;2022-08-05T15:18:53;28.10;91.30
24226;DHT22;51462;51.422;5.514;2022-08-05T15:21:18;28.60;96.10
24226;DHT22;51462;51.422;5.514;2022-08-05T15:23:44;27.90;93.30
24226;DHT22;51462;51.422;5.514;2022-08-05T15:26:11;27.10;93.30
24226;DHT22;51462;51.422;5.514;2022-08-05T15:28:37;27.60;97.20
24226;DHT22;51462;51.422;5.514;2022-08-05T15:31:03;27.90;96.30
24226;DHT22;51462;51.422;5.514;2022-08-05T15:33:28;28.30;95.50
24226;DHT22;51462;51.422;5.514;2022-08-05T15:35:54;28.40;94.40
24226;DHT22;51462;51.422;5.514;2022-08-05T15:38:19;28.40;94.50
24226;DHT22;51462;51.422;5.514;2022-08-05T15:40:45;28.60;93.80
24226;DHT22;51462;51.422;5.514;2022-08-05T15:43:11;28.60;93.60
24226;DHT22;51462;51.422;5.514;2022-08-05T15:45:36;28.50;93.10
24226;DHT22;51462;51.422;5.514;2022-08-05T15:48:02;28.60;93.40
24226;DHT22;51462;51.422;5.514;2022-08-05T15:50:28;28.50;92.30
24226;DHT22;51462;51.422;5.514;2022-08-05T15:52:54;28.50;92.40
24226;DHT22;51462;51.422;5.514;2022-08-05T15:55:19;28.30;92.60
24226;DHT22;51462;51.422;5.514;2022-08-05T15:57:45;28.20;92.60
24226;DHT22;51462;51.422;5.514;2022-08-05T16:00:11;28.30;91.90
24226;DHT22;51462;51.422;5.514;2022-08-05T16:02:37;28.40;92.90
24226;DHT22;51462;51.422;5.514;2022-08-05T16:05:05;27.60;92.10
24226;DHT22;51462;51.422;5.514;2022-08-05T16:07:31;27.70;93.00
24226;DHT22;51462;51.422;5.514;2022-08-05T16:09:56;28.10;92.40
24226;DHT22;51462;51.422;5.514;2022-08-05T16:12:22;27.80;92.20
24226;DHT22;51462;51.422;5.514;2022-08-05T16:14:47;27.60;91.60
24226;DHT22;51462;51.422;5.514;2022-08-05T16:17:13;27.40;91.50